createdAt,value
2023-04-02T00:04:24.383Z,68.93
2023-04-02T00:07:21.881Z,69.17
2023-04-02T00:09:55.854Z,69.17
2023-04-02T00:12:30.427Z,69.13
2023-04-02T00:15:05.033Z,69.12
2023-04-02T00:17:38.749Z,69.11
2023-04-02T00:20:20.398Z,69.07
2023-04-02T00:22:53.942Z,69.14
2023-04-02T00:25:30.190Z,69.14
2023-04-02T00:28:04.670Z,69.30
2023-04-02T00:30:38.872Z,69.35
2023-04-02T00:33:19.985Z,69.40
2023-04-02T00:35:54.922Z,69.33
2023-04-02T00:38:31.994Z,69.17
2023-04-02T00:41:09.061Z,69.07
2023-04-02T00:43:51.276Z,69.18
2023-04-02T00:46:31.344Z,69.32
2023-04-02T00:49:11.663Z,69.41
2023-04-02T00:51:51.921Z,69.43
2023-04-02T00:54:29.704Z,69.36
2023-04-02T00:57:04.698Z,69.29
2023-04-02T00:59:45.851Z,69.28
2023-04-02T01:02:29.127Z,69.35
2023-04-02T01:05:04.600Z,69.16
2023-04-02T01:08:01.462Z,69.21
2023-04-02T01:11:02.458Z,69.27
2023-04-02T01:13:43.711Z,69.23
2023-04-02T01:16:24.976Z,69.11
2023-04-02T01:19:07.263Z,69.25
2023-04-02T01:21:53.254Z,69.32
2023-04-02T01:24:32.158Z,69.03
2023-04-02T01:27:08.607Z,69.09
2023-04-02T01:29:47.023Z,69.33
2023-04-02T01:32:24.819Z,69.38
2023-04-02T01:34:59.905Z,69.53
2023-04-02T01:37:40.612Z,69.49
2023-04-02T01:40:30.285Z,69.41
2023-04-02T01:43:15.317Z,69.39
2023-04-02T01:45:49.230Z,69.43
2023-04-02T01:48:27.744Z,69.38
2023-04-02T01:51:04.328Z,69.31
2023-04-02T01:53:38.180Z,69.14
2023-04-02T01:56:12.053Z,69.19
2023-04-02T01:58:49.718Z,69.10
2023-04-02T02:01:28.881Z,68.99
2023-04-02T02:04:13.891Z,69.03
2023-04-02T02:06:49.072Z,68.97
2023-04-02T02:09:27.376Z,69.02
2023-04-02T02:12:03.727Z,69.04
2023-04-02T02:14:37.979Z,69.04
2023-04-02T02:17:16.409Z,69.00
2023-04-02T02:19:55.028Z,69.24
2023-04-02T02:22:32.445Z,69.18
2023-04-02T02:25:08.420Z,68.96
2023-04-02T02:28:01.575Z,69.08
2023-04-02T02:30:40.123Z,69.14
2023-04-02T02:33:22.970Z,69.10
2023-04-02T02:36:02.313Z,69.07
2023-04-02T02:38:54.418Z,69.04
2023-04-02T02:41:39.443Z,69.03
2023-04-02T02:44:20.466Z,68.96
2023-04-02T02:47:02.702Z,68.97
2023-04-02T02:49:39.698Z,69.02
2023-04-02T02:52:21.733Z,68.79
2023-04-02T02:55:14.719Z,68.72
2023-04-02T02:58:11.326Z,68.78
2023-04-02T03:00:54.136Z,68.92
2023-04-02T03:03:32.919Z,69.04
2023-04-02T03:06:11.111Z,69.07
2023-04-02T03:08:50.646Z,69.08
2023-04-02T03:11:35.609Z,69.03
2023-04-02T03:14:19.561Z,69.12
2023-04-02T03:17:00.615Z,69.22
2023-04-02T03:19:52.369Z,69.03
2023-04-02T03:22:32.462Z,69.26
2023-04-02T03:25:17.229Z,69.31
2023-04-02T03:27:55.846Z,69.46
2023-04-02T03:30:38.909Z,69.42
2023-04-02T03:33:19.104Z,69.45
2023-04-02T03:35:59.953Z,69.63
2023-04-02T03:38:38.858Z,69.57
2023-04-02T03:41:17.067Z,69.63
2023-04-02T03:43:55.971Z,69.67
2023-04-02T03:46:29.065Z,69.73
2023-04-02T03:49:06.492Z,69.75
2023-04-02T03:51:49.372Z,69.71
2023-04-02T03:54:23.847Z,69.60
2023-04-02T03:56:58.573Z,69.72
2023-04-02T03:59:43.278Z,69.85
2023-04-02T04:02:40.427Z,69.84
2023-04-02T04:05:25.983Z,70.11
2023-04-02T04:08:05.230Z,70.20
2023-04-02T04:10:39.739Z,70.33
2023-04-02T04:13:19.582Z,70.28
2023-04-02T04:16:01.080Z,70.42
2023-04-02T04:18:43.010Z,70.50
2023-04-02T04:21:31.465Z,70.68
2023-04-02T04:24:25.124Z,70.76
2023-04-02T04:27:10.319Z,70.78
2023-04-02T04:29:54.008Z,70.76
2023-04-02T04:32:34.105Z,70.86
2023-04-02T04:35:27.873Z,70.76
2023-04-02T04:38:08.027Z,70.56
2023-04-02T04:40:52.779Z,70.43
2023-04-02T04:43:48.781Z,70.39
2023-04-02T04:46:29.335Z,70.28
2023-04-02T04:49:19.325Z,69.79
2023-04-02T04:51:53.950Z,69.70
2023-04-02T04:54:30.198Z,69.91
2023-04-02T04:57:06.313Z,69.92
2023-04-02T04:59:46.107Z,69.86
2023-04-02T05:02:26.489Z,69.91
2023-04-02T05:05:02.412Z,69.64
2023-04-02T05:07:47.742Z,69.49
2023-04-02T05:10:30.644Z,69.38
2023-04-02T05:13:12.403Z,69.42
2023-04-02T05:15:52.747Z,69.39
2023-04-02T05:18:33.430Z,69.40
2023-04-02T05:21:16.133Z,69.46
2023-04-02T05:23:55.910Z,69.40
2023-04-02T05:26:47.507Z,69.50
2023-04-02T05:29:27.189Z,69.53
2023-04-02T05:32:06.268Z,69.40
2023-04-02T05:34:44.051Z,69.37
2023-04-02T05:37:21.352Z,69.29
2023-04-02T05:39:58.793Z,69.22
2023-04-02T05:42:37.524Z,69.06
2023-04-02T05:45:27.431Z,69.05
2023-04-02T05:48:04.760Z,68.97
2023-04-02T05:50:46.429Z,69.15
2023-04-02T05:53:32.610Z,69.12
2023-04-02T05:56:07.913Z,69.17
2023-04-02T05:58:46.757Z,68.84
2023-04-02T06:01:41.395Z,68.62
2023-04-02T06:04:28.062Z,68.63
2023-04-02T06:07:10.880Z,68.43
2023-04-02T06:09:54.645Z,68.46
2023-04-02T06:12:35.125Z,68.61
2023-04-02T06:15:17.332Z,68.31
2023-04-02T06:18:01.692Z,67.95
2023-04-02T06:20:36.828Z,68.01
2023-04-02T06:23:17.838Z,67.75
2023-04-02T06:25:55.109Z,67.95
2023-04-02T06:28:35.055Z,67.93
2023-04-02T06:31:29.590Z,67.66
2023-04-02T06:34:04.947Z,67.51
2023-04-02T06:36:40.542Z,67.58
2023-04-02T06:39:23.126Z,67.81
2023-04-02T06:42:05.794Z,67.67
2023-04-02T06:44:59.114Z,67.59
2023-04-02T06:48:14.928Z,67.19
2023-04-02T06:50:56.977Z,67.05
2023-04-02T06:53:37.307Z,67.12
2023-04-02T06:56:22.492Z,67.12
2023-04-02T06:59:08.932Z,67.20
2023-04-02T07:01:47.009Z,67.29
2023-04-02T07:04:22.558Z,67.20
2023-04-02T07:06:59.278Z,67.36
2023-04-02T07:09:36.750Z,67.49
2023-04-02T07:12:16.209Z,67.56
2023-04-02T07:14:50.448Z,67.81
2023-04-02T07:17:24.831Z,67.94
2023-04-02T07:19:58.806Z,67.84
2023-04-02T07:22:35.438Z,67.97
2023-04-02T07:25:10.972Z,67.99
2023-04-02T07:28:06.465Z,67.76
2023-04-02T07:30:41.314Z,67.76
2023-04-02T07:33:17.019Z,67.65
2023-04-02T07:35:52.015Z,67.60
2023-04-02T07:38:25.806Z,67.81
2023-04-02T07:40:59.740Z,67.94
2023-04-02T07:43:33.606Z,68.00
2023-04-02T07:46:08.279Z,67.98
2023-04-02T07:48:42.402Z,67.95
2023-04-02T07:51:23.998Z,67.90
2023-04-02T07:53:58.006Z,68.01
2023-04-02T07:56:32.296Z,68.32
2023-04-02T07:59:06.736Z,68.34
2023-04-02T08:01:41.356Z,68.50
2023-04-02T08:04:21.800Z,68.50
2023-04-02T08:06:55.437Z,68.20
2023-04-02T08:09:29.194Z,68.00
2023-04-02T08:12:16.293Z,67.77
2023-04-02T08:14:49.838Z,67.46
2023-04-02T08:17:23.761Z,67.58
2023-04-02T08:20:01.786Z,67.48
2023-04-02T08:22:35.932Z,67.70
2023-04-02T08:25:11.704Z,67.97
2023-04-02T08:27:48.319Z,68.19
2023-04-02T08:30:22.592Z,68.23
2023-04-02T08:32:57.155Z,67.97
2023-04-02T08:35:31.698Z,67.85
2023-04-02T08:38:05.616Z,67.91
2023-04-02T08:40:41.612Z,67.93
2023-04-02T08:43:49.990Z,67.90
2023-04-02T08:46:25.736Z,67.87
2023-04-02T08:49:02.450Z,68.00
2023-04-02T08:51:38.372Z,67.69
2023-04-02T08:54:23.924Z,67.57
2023-04-02T08:57:01.360Z,67.55
2023-04-02T08:59:40.918Z,67.72
2023-04-02T09:02:33.321Z,67.69
2023-04-02T09:05:18.034Z,67.72
2023-04-02T09:07:54.963Z,67.52
2023-04-02T09:10:39.163Z,67.54
2023-04-02T09:13:22.128Z,67.41
2023-04-02T09:16:03.343Z,67.45
2023-04-02T09:18:38.589Z,67.17
2023-04-02T09:21:36.923Z,67.27
2023-04-02T09:24:13.454Z,67.47
2023-04-02T09:26:48.096Z,67.61
2023-04-02T09:29:33.707Z,67.68
2023-04-02T09:32:20.336Z,67.57
2023-04-02T09:35:14.950Z,67.31
2023-04-02T09:38:19.677Z,67.18
2023-04-02T09:41:03.097Z,67.22
2023-04-02T09:43:38.342Z,67.36
2023-04-02T09:46:24.603Z,67.48
2023-04-02T09:49:01.457Z,67.15
2023-04-02T09:51:36.883Z,66.61
2023-04-02T09:54:18.474Z,66.56
2023-04-02T09:57:06.215Z,66.74
2023-04-02T09:59:40.479Z,66.65
2023-04-02T10:02:30.579Z,66.82
2023-04-02T10:05:29.947Z,67.12
2023-04-02T10:08:19.711Z,67.00
2023-04-02T10:10:57.307Z,66.58
2023-04-02T10:13:35.447Z,66.50
2023-04-02T10:16:12.941Z,66.61
2023-04-02T10:18:50.912Z,66.83
2023-04-02T10:21:29.804Z,66.87
2023-04-02T10:24:04.480Z,66.70
2023-04-02T10:26:50.079Z,66.69
2023-04-02T10:29:53.861Z,66.67
2023-04-02T10:32:37.750Z,66.74
2023-04-02T10:35:20.321Z,66.84
2023-04-02T10:38:21.158Z,66.93
2023-04-02T10:41:01.134Z,67.03
2023-04-02T10:43:57.815Z,66.95
2023-04-02T10:46:38.775Z,66.88
2023-04-02T10:49:24.188Z,67.03
2023-04-02T10:52:03.868Z,67.07
2023-04-02T10:54:50.428Z,67.31
2023-04-02T10:57:39.800Z,67.28
2023-04-02T11:00:25.863Z,67.22
2023-04-02T11:03:05.049Z,67.16
2023-04-02T11:05:45.458Z,67.26
2023-04-02T11:08:23.600Z,67.11
2023-04-02T11:11:04.496Z,67.37
2023-04-02T11:13:45.167Z,67.50
2023-04-02T11:16:19.203Z,67.67
2023-04-02T11:19:23.817Z,67.92
2023-04-02T11:22:01.866Z,68.09
2023-04-02T11:24:44.894Z,67.97
2023-04-02T11:27:26.254Z,67.89
2023-04-02T11:30:07.674Z,68.19
2023-04-02T11:32:46.557Z,68.38
2023-04-02T11:35:41.174Z,68.13
2023-04-02T11:38:57.549Z,68.28
2023-04-02T11:42:06.006Z,68.04
2023-04-02T11:44:40.497Z,68.21
2023-04-02T11:47:22.829Z,68.30
2023-04-02T11:50:29.347Z,68.46
2023-04-02T11:53:07.285Z,68.27
2023-04-02T11:55:42.265Z,68.77
2023-04-02T11:58:45.787Z,68.91
2023-04-02T12:01:38.739Z,69.08
2023-04-02T12:04:40.089Z,69.03
2023-04-02T12:07:35.838Z,68.83
2023-04-02T12:10:20.291Z,68.58
2023-04-02T12:12:55.112Z,68.28
2023-04-02T12:15:45.224Z,68.22
2023-04-02T12:18:23.170Z,68.08
2023-04-02T12:20:59.101Z,68.22
2023-04-02T12:23:35.134Z,68.18
2023-04-02T12:26:26.601Z,68.13
2023-04-02T12:29:18.607Z,68.19
2023-04-02T12:31:54.011Z,68.05
2023-04-02T12:34:31.052Z,68.09
2023-04-02T12:37:07.466Z,68.33
2023-04-02T12:39:41.609Z,68.41
2023-04-02T12:42:30.380Z,67.96
2023-04-02T12:45:07.106Z,68.06
2023-04-02T12:47:46.653Z,68.19
2023-04-02T12:50:22.558Z,68.12
2023-04-02T12:53:01.330Z,68.08
2023-04-02T12:55:34.328Z,68.26
2023-04-02T12:58:22.135Z,67.84
2023-04-02T13:01:11.093Z,67.91
2023-04-02T13:04:01.611Z,67.97
2023-04-02T13:06:36.804Z,68.20
2023-04-02T13:09:26.838Z,68.06
2023-04-02T13:12:04.549Z,67.73
2023-04-02T13:14:39.202Z,67.54
2023-04-02T13:17:46.041Z,67.56
2023-04-02T13:20:38.714Z,67.70
2023-04-02T13:23:39.092Z,67.72
2023-04-02T13:26:24.822Z,67.90
2023-04-02T13:29:04.240Z,68.06
2023-04-02T13:31:38.356Z,68.12
2023-04-02T13:34:12.675Z,67.85
2023-04-02T13:36:46.800Z,67.62
2023-04-02T13:39:21.993Z,67.62
2023-04-02T13:42:00.108Z,67.17
2023-04-02T13:44:37.392Z,67.34
2023-04-02T13:47:17.558Z,67.51
2023-04-02T13:49:51.393Z,67.69
2023-04-02T13:52:24.994Z,67.82
2023-04-02T13:55:01.500Z,67.49
2023-04-02T13:57:36.825Z,67.41
2023-04-02T14:00:13.514Z,67.74
2023-04-02T14:02:54.405Z,67.67
2023-04-02T14:05:41.394Z,67.80
2023-04-02T14:08:25.619Z,68.03
2023-04-02T14:11:10.880Z,67.79
2023-04-02T14:14:06.431Z,67.91
2023-04-02T14:16:58.735Z,67.82
2023-04-02T14:19:49.703Z,67.99
2023-04-02T14:22:35.835Z,67.73
2023-04-02T14:25:20.068Z,67.87
2023-04-02T14:28:04.639Z,68.31
2023-04-02T14:30:54.961Z,68.04
2023-04-02T14:33:41.936Z,68.02
2023-04-02T14:36:26.309Z,68.36
2023-04-02T14:39:09.489Z,68.49
2023-04-02T14:41:50.763Z,68.69
2023-04-02T14:44:40.846Z,68.61
2023-04-02T14:47:24.169Z,68.44
2023-04-02T14:50:04.771Z,68.73
2023-04-02T14:52:42.159Z,68.85
2023-04-02T14:55:24.187Z,68.77
2023-04-02T14:58:02.294Z,68.71
2023-04-02T15:00:42.742Z,68.86
2023-04-02T15:03:25.446Z,69.15
2023-04-02T15:06:06.351Z,69.16
2023-04-02T15:08:52.284Z,68.95
2023-04-02T15:11:39.087Z,68.93
2023-04-02T15:14:22.118Z,69.19
2023-04-02T15:16:58.472Z,69.25
2023-04-02T15:19:34.722Z,69.47
2023-04-02T15:22:33.547Z,69.46
2023-04-02T15:25:17.949Z,69.55
2023-04-02T15:28:13.662Z,69.41
2023-04-02T15:30:57.966Z,69.48
2023-04-02T15:33:46.987Z,69.20
2023-04-02T15:36:58.627Z,69.21
2023-04-02T15:39:51.774Z,69.05
2023-04-02T15:42:30.944Z,69.16
2023-04-02T15:45:29.452Z,69.08
2023-04-02T15:48:21.829Z,69.18
2023-04-02T15:51:06.802Z,69.70
2023-04-02T15:53:57.646Z,69.95
2023-04-02T15:56:42.966Z,69.88
2023-04-02T15:59:44.171Z,70.15
2023-04-02T16:02:40.947Z,70.36
2023-04-02T16:05:30.433Z,70.37
2023-04-02T16:08:33.596Z,70.41
2023-04-02T16:11:18.080Z,70.45
2023-04-02T16:13:54.764Z,70.65
2023-04-02T16:16:33.262Z,70.67
2023-04-02T16:19:17.190Z,70.69
2023-04-02T16:21:59.918Z,70.74
2023-04-02T16:24:34.960Z,70.81
2023-04-02T16:27:24.007Z,70.77
2023-04-02T16:30:25.775Z,70.82
2023-04-02T16:33:15.961Z,70.91
2023-04-02T16:36:07.489Z,70.51
2023-04-02T16:38:55.460Z,70.82
2023-04-02T16:41:44.099Z,70.77
2023-04-02T16:44:32.209Z,71.01
2023-04-02T16:47:24.348Z,71.22
2023-04-02T16:50:04.754Z,71.42
2023-04-02T16:52:52.670Z,71.32
2023-04-02T16:55:41.735Z,71.20
2023-04-02T16:58:35.862Z,71.26
2023-04-02T17:01:21.714Z,71.27
2023-04-02T17:04:26.824Z,71.37
2023-04-02T17:07:10.877Z,71.48
2023-04-02T17:09:54.874Z,71.57
2023-04-02T17:12:44.360Z,71.63
2023-04-02T17:15:28.256Z,71.63
2023-04-02T17:18:14.513Z,71.59
2023-04-02T17:20:51.895Z,71.61
2023-04-02T17:23:31.103Z,71.56
2023-04-02T17:26:13.043Z,71.65
2023-04-02T17:28:51.965Z,71.68
2023-04-02T17:31:35.243Z,71.87
2023-04-02T17:34:18.989Z,71.82
2023-04-02T17:37:07.941Z,71.99
2023-04-02T17:39:49.736Z,72.19
2023-04-02T17:42:36.034Z,72.17
2023-04-02T17:45:22.228Z,72.09
2023-04-02T17:48:07.246Z,72.03
2023-04-02T17:51:05.484Z,72.13
2023-04-02T17:54:05.443Z,72.22
2023-04-02T17:57:11.814Z,72.26
2023-04-02T18:00:03.946Z,72.14
2023-04-02T18:03:21.433Z,72.27
2023-04-02T18:06:02.517Z,72.22
2023-04-02T18:08:48.257Z,72.22
2023-04-02T18:11:40.337Z,72.35
2023-04-02T18:14:46.851Z,72.47
2023-04-02T18:17:31.799Z,72.49
2023-04-02T18:20:27.448Z,72.48
2023-04-02T18:23:10.746Z,72.31
2023-04-02T18:26:05.060Z,72.21
2023-04-02T18:28:58.366Z,72.26
2023-04-02T18:31:49.835Z,72.10
2023-04-02T18:34:56.281Z,71.96
2023-04-02T18:37:42.336Z,72.11
2023-04-02T18:40:35.441Z,72.17
2023-04-02T18:43:27.032Z,72.08
2023-04-02T18:46:09.660Z,71.99
2023-04-02T18:48:59.584Z,72.06
2023-04-02T18:51:43.874Z,71.90
2023-04-02T18:54:30.393Z,71.97
2023-04-02T18:57:16.528Z,72.08
2023-04-02T18:59:58.506Z,72.08
2023-04-02T19:02:50.562Z,72.17
2023-04-02T19:05:35.851Z,72.13
2023-04-02T19:08:19.514Z,72.24
2023-04-02T19:11:01.988Z,72.31
2023-04-02T19:13:42.681Z,72.38
2023-04-02T19:16:38.798Z,72.33
2023-04-02T19:19:22.124Z,72.25
2023-04-02T19:22:27.431Z,72.34
2023-04-02T19:25:33.500Z,72.26
2023-04-02T19:28:23.753Z,72.54
2023-04-02T19:31:20.830Z,72.48
2023-04-02T19:34:07.102Z,72.39
2023-04-02T19:36:58.978Z,72.42
2023-04-02T19:40:12.315Z,71.93
2023-04-02T19:42:55.856Z,71.73
2023-04-02T19:45:42.670Z,72.00
2023-04-02T19:48:23.752Z,71.96
2023-04-02T19:51:00.530Z,72.04
2023-04-02T19:53:36.761Z,71.99
2023-04-02T19:56:15.291Z,71.98
2023-04-02T19:58:52.851Z,72.10
2023-04-02T20:01:45.000Z,72.11
2023-04-02T20:04:22.490Z,72.08
2023-04-02T20:07:01.672Z,72.00
2023-04-02T20:09:38.625Z,72.05
2023-04-02T20:12:26.478Z,72.13
2023-04-02T20:15:36.678Z,72.06
2023-04-02T20:18:22.225Z,72.00
2023-04-02T20:21:45.785Z,71.81
2023-04-02T20:24:31.424Z,71.79
2023-04-02T20:27:13.945Z,71.82
2023-04-02T20:29:53.126Z,71.74
2023-04-02T20:32:30.751Z,71.76
2023-04-02T20:35:06.290Z,71.86
2023-04-02T20:37:43.290Z,71.60
2023-04-02T20:40:18.188Z,71.36
2023-04-02T20:42:53.836Z,71.29
2023-04-02T20:45:30.014Z,71.26
2023-04-02T20:48:03.850Z,71.23
2023-04-02T20:50:38.970Z,71.33
2023-04-02T20:53:12.971Z,71.31
2023-04-02T20:55:47.393Z,71.26
2023-04-02T20:58:22.012Z,71.30
2023-04-02T21:00:55.715Z,71.39
2023-04-02T21:03:29.726Z,71.23
2023-04-02T21:06:03.838Z,70.97
2023-04-02T21:08:37.693Z,70.91
2023-04-02T21:11:11.821Z,70.84
2023-04-02T21:13:45.790Z,70.67
2023-04-02T21:16:21.397Z,70.63
2023-04-02T21:18:56.625Z,70.22
2023-04-02T21:21:31.389Z,70.00
2023-04-02T21:24:07.293Z,70.00
2023-04-02T21:26:42.339Z,69.96
2023-04-02T21:29:16.595Z,69.70
2023-04-02T21:31:50.705Z,69.35
2023-04-02T21:34:24.818Z,68.66
2023-04-02T21:36:58.411Z,68.14
2023-04-02T21:39:32.270Z,67.77
2023-04-02T21:42:06.744Z,67.68
2023-04-02T21:44:40.640Z,67.36
2023-04-02T21:47:18.532Z,67.19
2023-04-02T21:49:52.232Z,67.14
2023-04-02T21:52:25.777Z,67.23
2023-04-02T21:54:59.459Z,67.20
2023-04-02T21:57:33.164Z,67.10
2023-04-02T22:00:12.649Z,66.92
2023-04-02T22:02:46.394Z,66.61
2023-04-02T22:05:20.417Z,66.22
2023-04-02T22:07:54.108Z,65.97
2023-04-02T22:10:27.921Z,65.82
2023-04-02T22:13:01.646Z,65.31
2023-04-02T22:15:36.582Z,64.97
2023-04-02T22:18:10.818Z,64.79
2023-04-02T22:20:44.942Z,64.60
2023-04-02T22:23:19.488Z,64.69
2023-04-02T22:25:53.906Z,64.64
2023-04-02T22:28:27.937Z,64.23
2023-04-02T22:31:08.618Z,63.84
2023-04-02T22:33:43.232Z,63.70
2023-04-02T22:36:18.976Z,63.48
2023-04-02T22:38:52.872Z,63.44
2023-04-02T22:41:28.409Z,63.13
2023-04-02T22:44:02.892Z,63.16
2023-04-02T22:46:37.425Z,63.03
2023-04-02T22:49:12.164Z,62.71
2023-04-02T22:52:07.322Z,62.44
2023-04-02T22:54:41.428Z,62.35
2023-04-02T22:57:15.093Z,62.30
2023-04-02T22:59:48.567Z,61.95
2023-04-02T23:02:22.947Z,61.99
2023-04-02T23:04:57.422Z,62.16
2023-04-02T23:07:31.751Z,61.63
2023-04-02T23:10:05.903Z,61.66
2023-04-02T23:12:39.639Z,61.62
2023-04-02T23:15:14.696Z,61.79
2023-04-02T23:17:51.776Z,61.77
2023-04-02T23:20:25.870Z,61.65
2023-04-02T23:22:59.796Z,61.84
2023-04-02T23:25:33.311Z,61.83
2023-04-02T23:28:08.065Z,61.45
2023-04-02T23:30:42.930Z,61.16
2023-04-02T23:33:16.610Z,61.22
2023-04-02T23:36:00.267Z,60.86
2023-04-02T23:38:34.270Z,60.86
2023-04-02T23:41:29.664Z,60.86
2023-04-02T23:44:03.962Z,60.92
2023-04-02T23:46:41.860Z,60.67
2023-04-02T23:49:16.127Z,60.73
2023-04-02T23:51:49.832Z,60.68
2023-04-02T23:54:23.810Z,60.72
2023-04-02T23:57:17.961Z,60.68
2023-04-02T23:59:51.566Z,60.67
